Osceola, Arkansas
Current Conditions -  °F | °C
As of 9:53 AM on Tuesday 21 Oct 2014 (Local Time) from KHKA Reporting Station
Clear Clear  
Wind Chill: 19°   Ceiling: Unl
Heat Index: 19°   Visibility: 10mi
Dew Point: 12°   Wind: 3mph
Humidity: 63%   Direction: NA
Pressure: 30.11"   Gusts: NA
Location:  35.71°N, 89.97°W
Report Text: KHKA 211453Z AUTO VRB03KT 10SM CLR 19/12 A3011 RMK AO2 SLP196 T01940122 51017
Loading
Personal Weather Stations






























Interactive Weather Map
Tropical Storm Tracking
New forecast layout! Learn more

10-Day Weather Forecast

Advertisements
Track Severe Weather on mobile